Clarksville, TN (37043)

05:48 PM CDT del 25 Ottobre 2014 (GMT -0500)
South Sango | Change Station
CLOSE
Current Station
Stazione meteo personale
Location: Clarksville, TN
Altitudine: 604 ft
Stazioni meteo nelle vicinanze

Alt. 604 ft 36.43 °N, 87.26 °W | Updated 13 minutes ago

Sereno
Sereno
74.7 °F
Sembra 76 °F
N
0.0
Vento Variabile Vento da Ovest

Oggi
Massima -- | Minima -- °F
--% Possibilità di precip.
Ieri
Massima -- | Minima -- °F
Precip. -- in
7:05 AM 6:00 PM
Luna crescente, 4% visible
Pressione 30.00 in
Visibilità 10.0 miglia
Nuvole Sereno
Indice di calore 76 °F
Punto di rugiada 66 °F
Umidità 74%
Piovosità 0.00 in
Spessore del manto nevoso Non disponibile.
Raggi UV 1 fuori da 12
Polline 1.50 fuori da 12
Qualità dell'aria Non disponibile.
Flu Activity No Activity
METAR KHOP 252158Z AUTO 30005KT 10SM CLR 25/17 A3000 RMK AO2 SLP158 T02460168

More Conditions Fewer Conditions

Pressione 30.00 in
Visibilità 10.0 miglia
Nuvole Sereno
Indice di calore 76 °F
Punto di rugiada 66 °F
Umidità 74%
Piovosità 0.00 in
Spessore del manto nevoso Non disponibile.
Raggi UV 1 fuori da 12
Polline 1.50 fuori da 12
Qualità dell'aria Non disponibile.
Flu Activity No Activity
METAR KHOP 252158Z AUTO 30005KT 10SM CLR 25/17 A3000 RMK AO2 SLP158 T02460168

More Conditions Fewer Conditions

10-Day Weather Forecast

Almanac

Astronomia

Oct. 25, 2014 Alba Tramonto
Ora attuale 07:05 CDT 18:00 CDT
Crepuscolo civile 06:39 CDT 18:26 CDT
Crepuscolo nautico 06:08 CDT 18:56 CDT
Crepuscolo astronomico 05:38 CDT 19:26 CDT
Luna 08:41 CDT 19:25 CDT
Estensione della luce visibile 11h 47m
Lunghezza del giorno
10h 54m
Tomorrow will be 2m 7s shorter.
Luna crescente, 4% of the Moon is Illuminated
Oggi
Luna crescente
Ott 30
Primo quarto
Nov 6
Luna piena
Nov 14
Ultimo quarto
Nov 22
Nuovo

Gli estremi di oggi

State Highs State Lows

Community

WunderPhotos

Upload Photos

1,765,016 foto caricate!

Nearby

Qualità dell'aria

  Qualità dell'aria Indice AQ Inquinante
Ieri Moderato
PM2.5
Ieri Buono
OZONE
Sabato Moderato
PM2.5
Sabato Buono
OZONE
Domenica Moderato
PM2.5
Domenica Buono
OZONE
Lunedì Moderato
PM2.5
Lunedì Buono
OZONE

Profondità neve

Stazione Profondità Altitudine
Non sono state evidenziate nuove nevicate

Attività sismica

Città  Distanza Mag. Data & Ora
Non sono state riportate attività sismiche nelle vicinanze.
Minimo Magnitudo Mostrato è 2.5.

Temperature delle acque costiere

Località Temperatura
Nessun dato dalle stazioni

Stazioni meteo nelle vicinanze